createdAt,value
2017-05-22T00:01:00.223Z,14.92
2017-05-22T00:03:26.915Z,15.10
2017-05-22T00:05:53.598Z,15.80
2017-05-22T00:08:20.315Z,17.46
2017-05-22T00:10:47.029Z,16.74
2017-05-22T00:13:13.728Z,17.28
2017-05-22T00:15:40.435Z,15.96
2017-05-22T00:18:07.120Z,15.70
2017-05-22T00:20:33.856Z,15.78
2017-05-22T00:23:00.545Z,17.08
2017-05-22T00:25:27.240Z,17.38
2017-05-22T00:27:53.939Z,17.70
2017-05-22T00:30:20.640Z,16.34
2017-05-22T00:32:47.352Z,17.84
2017-05-22T00:35:14.044Z,16.74
2017-05-22T00:37:40.727Z,17.94
2017-05-22T00:40:07.455Z,17.46
2017-05-22T00:42:34.150Z,17.62
2017-05-22T00:45:00.867Z,16.96
2017-05-22T00:47:27.555Z,18.90
2017-05-22T00:49:54.240Z,19.00
2017-05-22T00:52:20.947Z,19.04
2017-05-22T00:54:47.635Z,18.86
2017-05-22T00:57:14.365Z,18.18
2017-05-22T00:59:41.047Z,17.20
2017-05-22T01:02:07.737Z,18.10
2017-05-22T01:04:34.428Z,18.38
2017-05-22T01:07:01.120Z,20.38
2017-05-22T01:09:27.824Z,17.26
2017-05-22T01:11:54.506Z,17.78
2017-05-22T01:14:21.199Z,18.68
2017-05-22T01:16:47.915Z,18.20
2017-05-22T01:19:14.644Z,17.98
2017-05-22T01:21:41.356Z,18.76
2017-05-22T01:24:08.044Z,16.54
2017-05-22T01:26:34.743Z,18.30
2017-05-22T01:29:01.455Z,19.46
2017-05-22T01:31:28.147Z,17.16
2017-05-22T01:33:55.075Z,18.22
2017-05-22T01:36:21.775Z,16.26
2017-05-22T01:38:48.476Z,16.78
2017-05-22T01:41:15.178Z,17.38
2017-05-22T01:43:41.869Z,17.40
2017-05-22T01:46:08.580Z,16.82
2017-05-22T01:48:35.278Z,17.34
2017-05-22T01:51:02.197Z,18.34
2017-05-22T01:53:28.908Z,17.32
2017-05-22T01:55:55.591Z,18.42
2017-05-22T01:58:22.312Z,17.20
2017-05-22T02:00:48.999Z,17.74
2017-05-22T02:03:15.691Z,17.74
2017-05-22T02:05:42.384Z,17.50
2017-05-22T02:08:09.115Z,17.28
2017-05-22T02:10:36.095Z,18.40
2017-05-22T02:13:02.792Z,17.48
2017-05-22T02:15:29.492Z,17.92
2017-05-22T02:17:56.200Z,17.82
2017-05-22T02:20:22.892Z,17.14
2017-05-22T02:22:49.685Z,18.96
2017-05-22T02:25:16.383Z,19.76
2017-05-22T02:27:43.092Z,18.64
2017-05-22T02:30:09.848Z,17.48
2017-05-22T02:32:36.547Z,18.86
2017-05-22T02:35:03.257Z,19.02
2017-05-22T02:37:29.971Z,21.84
2017-05-22T02:39:56.662Z,19.52
2017-05-22T02:42:23.350Z,20.84
2017-05-22T02:44:50.049Z,20.62
2017-05-22T02:47:16.755Z,22.68
2017-05-22T02:49:43.447Z,22.74
2017-05-22T02:52:10.135Z,23.88
2017-05-22T02:54:37.203Z,22.12
2017-05-22T02:57:03.897Z,21.94
2017-05-22T02:59:30.607Z,22.04
2017-05-22T03:01:57.316Z,22.70
2017-05-22T03:04:24.011Z,22.68
2017-05-22T03:06:50.703Z,22.36
2017-05-22T03:09:17.388Z,22.56
2017-05-22T03:11:44.122Z,21.28
2017-05-22T03:14:11.144Z,20.92
2017-05-22T03:16:37.857Z,21.30
2017-05-22T03:19:04.572Z,20.02
2017-05-22T03:21:31.292Z,21.22
2017-05-22T03:23:58.008Z,21.64
2017-05-22T03:26:24.691Z,20.60
2017-05-22T03:28:58.530Z,21.54
2017-05-22T03:31:25.219Z,21.30
2017-05-22T03:33:51.919Z,22.48
2017-05-22T03:36:18.623Z,25.12
2017-05-22T03:38:44.666Z,23.50
2017-05-22T03:41:11.354Z,25.74
2017-05-22T03:43:38.263Z,22.46
2017-05-22T03:46:04.955Z,26.12
2017-05-22T03:48:31.639Z,23.22
2017-05-22T03:50:58.340Z,21.86
2017-05-22T03:53:25.042Z,22.26
2017-05-22T03:55:51.770Z,21.90
2017-05-22T03:58:18.507Z,22.86
2017-05-22T04:00:45.212Z,22.12
2017-05-22T04:03:11.911Z,21.42
2017-05-22T04:05:38.694Z,21.56
2017-05-22T04:08:05.412Z,22.54
2017-05-22T04:10:32.109Z,22.22
2017-05-22T04:12:58.816Z,20.74
2017-05-22T04:15:25.739Z,21.10
2017-05-22T04:17:51.693Z,21.34
2017-05-22T04:20:18.403Z,20.68
2017-05-22T04:22:45.100Z,19.38
2017-05-22T04:25:11.795Z,19.66
2017-05-22T04:27:38.496Z,22.52
2017-05-22T04:30:05.402Z,19.10
2017-05-22T04:32:32.111Z,19.54
2017-05-22T04:34:59.093Z,20.46
2017-05-22T04:37:26.104Z,19.04
2017-05-22T04:39:52.838Z,17.60
2017-05-22T04:42:19.539Z,18.66
2017-05-22T04:44:46.250Z,17.52
2017-05-22T04:47:12.957Z,16.94
2017-05-22T04:49:39.675Z,18.76
2017-05-22T04:52:06.370Z,16.80
2017-05-22T04:54:33.062Z,16.32
2017-05-22T04:56:59.768Z,17.62
2017-05-22T04:59:26.479Z,17.38
2017-05-22T05:01:53.212Z,16.02
2017-05-22T05:04:19.905Z,16.58
2017-05-22T05:06:46.619Z,16.66
2017-05-22T05:09:13.323Z,15.82
2017-05-22T05:11:40.028Z,17.06
2017-05-22T05:14:06.793Z,15.96
2017-05-22T05:16:33.503Z,17.04
2017-05-22T05:19:00.195Z,16.54
2017-05-22T05:21:26.667Z,16.86
2017-05-22T05:23:53.362Z,16.70
2017-05-22T05:26:20.075Z,16.74
2017-05-22T05:28:46.764Z,16.98
2017-05-22T05:31:13.459Z,15.64
2017-05-22T05:33:40.171Z,16.92
2017-05-22T05:36:07.171Z,16.18
2017-05-22T05:38:33.887Z,14.60
2017-05-22T05:41:00.594Z,16.48
2017-05-22T05:43:28.023Z,14.90
2017-05-22T05:45:54.722Z,13.46
2017-05-22T05:48:21.880Z,14.26
2017-05-22T05:50:48.616Z,13.70
2017-05-22T05:53:15.319Z,13.24
2017-05-22T05:55:42.015Z,12.76
2017-05-22T05:58:08.718Z,12.80
2017-05-22T06:00:35.432Z,11.20
2017-05-22T06:03:02.139Z,12.88
2017-05-22T06:05:28.828Z,11.64
2017-05-22T06:07:55.542Z,11.54
2017-05-22T06:10:22.235Z,11.98
2017-05-22T06:12:48.932Z,11.50
2017-05-22T06:15:15.656Z,11.00
2017-05-22T06:17:42.356Z,9.98
2017-05-22T06:20:09.064Z,9.62
2017-05-22T06:22:35.788Z,9.48
2017-05-22T06:25:02.483Z,9.60
2017-05-22T06:27:29.170Z,10.20
2017-05-22T06:29:55.872Z,9.74
2017-05-22T06:32:22.562Z,10.14
2017-05-22T06:34:49.263Z,10.12
2017-05-22T06:37:15.985Z,9.48
2017-05-22T06:39:42.683Z,8.46
2017-05-22T06:42:09.413Z,9.00
2017-05-22T06:44:36.135Z,9.70
2017-05-22T06:47:03.049Z,8.70
2017-05-22T06:49:29.756Z,8.42
2017-05-22T06:51:56.496Z,8.56
2017-05-22T06:54:23.183Z,8.84
2017-05-22T06:56:50.151Z,8.66
2017-05-22T06:59:16.880Z,8.48
2017-05-22T07:01:43.566Z,8.78
2017-05-22T07:04:10.295Z,7.62
2017-05-22T07:06:36.995Z,7.76
2017-05-22T07:09:03.678Z,8.14
2017-05-22T07:11:30.373Z,7.08
2017-05-22T07:13:57.349Z,6.86
2017-05-22T07:16:24.047Z,7.20
2017-05-22T07:18:50.766Z,6.22
2017-05-22T07:21:17.467Z,5.88
2017-05-22T07:23:44.160Z,6.60
2017-05-22T07:26:10.966Z,6.92
2017-05-22T07:28:37.660Z,5.86
2017-05-22T07:31:04.360Z,6.18
2017-05-22T07:33:31.081Z,5.90
2017-05-22T07:35:58.000Z,6.00
2017-05-22T07:38:24.711Z,5.32
2017-05-22T07:40:51.410Z,4.92
2017-05-22T07:43:18.102Z,5.36
2017-05-22T07:45:44.801Z,5.10
2017-05-22T07:48:11.512Z,5.64
2017-05-22T07:50:38.229Z,5.88
2017-05-22T07:53:04.920Z,5.46
2017-05-22T07:55:31.639Z,4.86
2017-05-22T07:57:58.350Z,4.28
2017-05-22T08:00:25.047Z,3.70
2017-05-22T08:02:51.750Z,4.62
2017-05-22T08:05:18.434Z,4.44
2017-05-22T08:07:45.197Z,4.66
2017-05-22T08:10:11.902Z,3.98
2017-05-22T08:12:38.597Z,4.32
2017-05-22T08:15:05.962Z,3.74
2017-05-22T08:17:32.658Z,4.28
2017-05-22T08:19:59.352Z,3.90
2017-05-22T08:22:26.052Z,3.64
2017-05-22T08:24:52.736Z,3.80
2017-05-22T08:27:19.456Z,3.84
2017-05-22T08:29:46.163Z,4.40
2017-05-22T08:32:12.851Z,4.30
2017-05-22T08:34:39.546Z,3.66
2017-05-22T08:37:06.239Z,3.80
2017-05-22T08:39:32.952Z,3.42
2017-05-22T08:41:59.648Z,3.90
2017-05-22T08:44:26.338Z,3.70
2017-05-22T08:46:53.026Z,2.56
2017-05-22T08:49:19.738Z,2.42
2017-05-22T08:51:46.430Z,2.76
2017-05-22T08:54:13.132Z,3.42
2017-05-22T08:56:39.867Z,3.38
2017-05-22T08:59:06.578Z,2.96
2017-05-22T09:01:33.554Z,2.94
2017-05-22T09:04:00.296Z,3.28
2017-05-22T09:06:27.006Z,3.42
2017-05-22T09:08:53.691Z,3.34
2017-05-22T09:11:20.381Z,2.10
2017-05-22T09:13:47.090Z,2.70
2017-05-22T09:16:13.787Z,2.64
2017-05-22T09:18:40.500Z,2.50
2017-05-22T09:21:07.196Z,2.82
2017-05-22T09:23:33.883Z,3.08
2017-05-22T09:26:00.583Z,2.92
2017-05-22T09:28:27.286Z,3.00
2017-05-22T09:30:54.000Z,3.28
2017-05-22T09:33:21.087Z,3.24
2017-05-22T09:35:47.788Z,3.46
2017-05-22T09:38:14.477Z,3.82
2017-05-22T09:40:41.212Z,3.18
2017-05-22T09:43:07.909Z,2.38
2017-05-22T09:45:41.467Z,1.80
2017-05-22T09:48:08.240Z,1.70
2017-05-22T09:50:34.927Z,1.20
2017-05-22T09:53:01.628Z,1.48
2017-05-22T09:55:28.332Z,1.40
2017-05-22T09:57:55.048Z,1.82
2017-05-22T10:00:21.734Z,4.34
2017-05-22T10:02:48.424Z,4.64
2017-05-22T10:05:15.122Z,2.54
2017-05-22T10:07:41.811Z,2.64
2017-05-22T10:10:08.587Z,3.56
2017-05-22T10:12:35.279Z,4.72
2017-05-22T10:15:01.231Z,3.40
2017-05-22T10:17:27.938Z,2.76
2017-05-22T10:19:54.623Z,2.88
2017-05-22T10:22:21.326Z,2.86
2017-05-22T10:24:48.024Z,2.18
2017-05-22T10:27:14.751Z,3.70
2017-05-22T10:29:41.434Z,2.00
2017-05-22T10:32:08.128Z,2.12
2017-05-22T10:34:34.891Z,1.96
2017-05-22T10:37:01.586Z,2.60
2017-05-22T10:39:28.302Z,2.46
2017-05-22T10:41:54.990Z,2.40
2017-05-22T10:44:21.670Z,2.28
2017-05-22T10:46:48.368Z,2.20
2017-05-22T10:49:15.060Z,2.80
2017-05-22T10:51:41.773Z,1.92
2017-05-22T10:54:08.452Z,2.18
2017-05-22T10:56:35.163Z,1.98
2017-05-22T10:59:01.850Z,1.86
2017-05-22T11:01:28.531Z,2.16
2017-05-22T11:03:55.256Z,2.02
2017-05-22T11:06:21.950Z,1.80
2017-05-22T11:08:48.670Z,2.00
2017-05-22T11:11:15.359Z,2.68
2017-05-22T11:13:42.062Z,3.08
2017-05-22T11:16:08.792Z,2.20
2017-05-22T11:18:35.478Z,2.48
2017-05-22T11:21:02.200Z,2.34
2017-05-22T11:23:28.887Z,2.53
2017-05-22T11:25:55.574Z,2.64
2017-05-22T11:28:22.285Z,2.12
2017-05-22T11:30:48.979Z,2.28
2017-05-22T11:33:15.676Z,1.90
2017-05-22T11:35:42.363Z,2.00
2017-05-22T11:38:09.114Z,1.60
2017-05-22T11:40:35.811Z,2.44
2017-05-22T11:43:02.494Z,1.98
2017-05-22T11:45:29.187Z,2.04
2017-05-22T11:47:55.880Z,1.72
2017-05-22T11:50:22.567Z,1.62
2017-05-22T11:52:49.267Z,2.00
2017-05-22T11:55:15.980Z,1.72
2017-05-22T11:57:42.689Z,2.12
2017-05-22T12:00:09.405Z,1.84
2017-05-22T12:02:36.098Z,1.92
2017-05-22T12:05:02.778Z,2.38
2017-05-22T12:07:29.504Z,2.00
2017-05-22T12:09:56.204Z,1.94
2017-05-22T12:12:22.907Z,2.08
2017-05-22T12:14:49.629Z,1.62
2017-05-22T12:17:16.302Z,2.18
2017-05-22T12:19:43.003Z,2.42
2017-05-22T12:22:09.687Z,2.60
2017-05-22T12:24:36.506Z,2.16
2017-05-22T12:27:03.206Z,2.16
2017-05-22T12:29:29.935Z,2.16
2017-05-22T12:31:56.622Z,1.92
2017-05-22T12:34:23.307Z,2.10
2017-05-22T12:36:50.008Z,1.90
2017-05-22T12:39:16.702Z,2.10
2017-05-22T12:41:43.422Z,2.02
2017-05-22T12:44:10.387Z,2.02
2017-05-22T12:46:37.099Z,1.88
2017-05-22T12:49:03.783Z,1.74
2017-05-22T12:51:30.485Z,1.76
2017-05-22T12:53:57.180Z,2.38
2017-05-22T12:56:23.895Z,1.98
2017-05-22T12:58:50.583Z,2.16
2017-05-22T13:01:17.279Z,1.94
2017-05-22T13:03:44.095Z,2.36
2017-05-22T13:06:10.795Z,2.04
2017-05-22T13:08:37.488Z,1.92
2017-05-22T13:11:04.189Z,2.12
2017-05-22T13:13:31.111Z,1.98
2017-05-22T13:15:58.020Z,2.10
2017-05-22T13:18:24.824Z,1.86
2017-05-22T13:20:51.531Z,1.94
2017-05-22T13:23:18.239Z,2.00
2017-05-22T13:25:45.263Z,2.12
2017-05-22T13:28:11.966Z,2.02
2017-05-22T13:30:38.656Z,2.02
2017-05-22T13:33:05.472Z,2.12
2017-05-22T13:35:32.166Z,2.34
2017-05-22T13:37:59.779Z,1.96
2017-05-22T13:40:26.848Z,1.92
2017-05-22T13:42:53.583Z,2.16
2017-05-22T13:45:20.283Z,2.02
2017-05-22T13:47:46.975Z,2.32
2017-05-22T13:50:13.678Z,2.70
2017-05-22T13:52:40.367Z,2.70
2017-05-22T13:55:08.351Z,2.48
2017-05-22T13:57:35.043Z,2.32
2017-05-22T14:00:01.747Z,2.38
2017-05-22T14:02:28.451Z,2.20
2017-05-22T14:04:55.148Z,2.56
2017-05-22T14:07:21.871Z,2.42
2017-05-22T14:09:48.568Z,2.28
2017-05-22T14:12:15.353Z,2.76
2017-05-22T14:14:42.055Z,2.46
2017-05-22T14:17:08.756Z,2.42
2017-05-22T14:19:35.472Z,2.62
2017-05-22T14:22:02.212Z,2.80
2017-05-22T14:24:29.334Z,2.84
2017-05-22T14:26:56.036Z,2.68
2017-05-22T14:29:22.735Z,2.78
2017-05-22T14:31:49.443Z,3.18
2017-05-22T14:34:16.166Z,2.78
2017-05-22T14:36:42.870Z,2.62
2017-05-22T14:39:09.589Z,3.00
2017-05-22T14:41:36.284Z,2.62
2017-05-22T14:44:03.027Z,3.00
2017-05-22T14:46:29.714Z,3.38
2017-05-22T14:48:56.435Z,2.62
2017-05-22T14:51:23.130Z,3.36
2017-05-22T14:53:49.888Z,3.00
2017-05-22T14:56:16.599Z,2.64
2017-05-22T14:58:43.528Z,3.18
2017-05-22T15:01:10.221Z,3.12
2017-05-22T15:03:36.946Z,3.08
2017-05-22T15:06:03.653Z,3.10
2017-05-22T15:08:30.336Z,2.98
2017-05-22T15:10:57.179Z,3.26
2017-05-22T15:13:23.862Z,2.82
2017-05-22T15:15:50.547Z,3.18
2017-05-22T15:18:17.264Z,3.12
2017-05-22T15:20:43.950Z,3.00
2017-05-22T15:23:10.630Z,3.20
2017-05-22T15:25:37.348Z,2.84
2017-05-22T15:28:04.624Z,3.12
2017-05-22T15:30:31.570Z,3.02
2017-05-22T15:32:58.316Z,3.58
2017-05-22T15:35:25.067Z,3.00
2017-05-22T15:37:51.761Z,2.92
2017-05-22T15:40:18.463Z,2.92
2017-05-22T15:42:45.158Z,3.50
2017-05-22T15:45:11.859Z,3.20
2017-05-22T15:47:38.584Z,3.82
2017-05-22T15:50:05.283Z,3.28
2017-05-22T15:52:32.000Z,3.62
2017-05-22T15:54:58.723Z,3.36
2017-05-22T15:57:25.448Z,3.06
2017-05-22T15:59:52.135Z,3.42
2017-05-22T16:02:18.844Z,3.20
2017-05-22T16:04:45.548Z,2.98
2017-05-22T16:07:12.256Z,3.70
2017-05-22T16:09:38.971Z,3.40
2017-05-22T16:12:05.655Z,2.98
2017-05-22T16:14:32.330Z,3.66
2017-05-22T16:16:59.047Z,3.46
2017-05-22T16:19:25.741Z,3.50
2017-05-22T16:21:52.435Z,3.62
2017-05-22T16:24:19.152Z,3.32
2017-05-22T16:26:45.876Z,3.22
2017-05-22T16:29:12.580Z,3.30
2017-05-22T16:31:39.323Z,3.26
2017-05-22T16:34:06.016Z,3.58
2017-05-22T16:36:32.744Z,3.20
2017-05-22T16:38:59.462Z,3.12
2017-05-22T16:41:26.171Z,4.30
2017-05-22T16:43:52.868Z,3.76
2017-05-22T16:46:19.592Z,3.86
2017-05-22T16:48:46.283Z,3.86
2017-05-22T16:51:12.972Z,3.84
2017-05-22T16:53:39.693Z,3.50
2017-05-22T16:56:06.371Z,3.70
2017-05-22T16:58:33.063Z,3.72
2017-05-22T17:00:59.794Z,3.12
2017-05-22T17:03:26.491Z,3.74
2017-05-22T17:05:53.188Z,3.94
2017-05-22T17:08:19.916Z,3.82
2017-05-22T17:10:46.616Z,3.80
2017-05-22T17:13:13.304Z,3.56
2017-05-22T17:15:40.018Z,3.58
2017-05-22T17:18:06.702Z,3.14
2017-05-22T17:20:33.494Z,3.78
2017-05-22T17:23:00.203Z,4.04
2017-05-22T17:25:26.895Z,3.90
2017-05-22T17:27:53.604Z,3.88
2017-05-22T17:30:27.312Z,4.24
2017-05-22T17:32:54.000Z,3.60
2017-05-22T17:35:20.804Z,3.64
2017-05-22T17:37:47.516Z,3.94
2017-05-22T17:40:14.215Z,4.70
2017-05-22T17:42:40.915Z,4.28
2017-05-22T17:45:07.627Z,4.30
2017-05-22T17:47:34.314Z,3.82
2017-05-22T17:50:01.017Z,4.24
2017-05-22T17:52:27.747Z,4.32
2017-05-22T17:54:54.447Z,4.10
2017-05-22T17:57:21.144Z,5.44
2017-05-22T17:59:47.861Z,4.32
2017-05-22T18:02:14.554Z,4.02
2017-05-22T18:04:41.268Z,4.40
2017-05-22T18:07:07.984Z,4.40
2017-05-22T18:09:34.731Z,4.48
2017-05-22T18:12:01.469Z,3.94
2017-05-22T18:14:28.192Z,4.50
2017-05-22T18:16:55.142Z,3.88
2017-05-22T18:19:21.827Z,4.32
2017-05-22T18:21:48.539Z,4.56
2017-05-22T18:24:16.450Z,4.46
2017-05-22T18:26:43.141Z,4.12
2017-05-22T18:29:09.848Z,4.68
2017-05-22T18:31:36.545Z,4.60
2017-05-22T18:34:03.520Z,4.44
2017-05-22T18:36:30.230Z,4.92
2017-05-22T18:38:56.918Z,4.44
2017-05-22T18:41:23.607Z,4.84
2017-05-22T18:43:50.336Z,4.26
2017-05-22T18:46:17.042Z,4.48
2017-05-22T18:48:43.733Z,4.56
2017-05-22T18:51:10.448Z,3.86
2017-05-22T18:53:37.155Z,4.22
2017-05-22T18:56:03.880Z,4.48
2017-05-22T18:58:40.864Z,4.38
2017-05-22T19:01:07.555Z,4.70
2017-05-22T19:03:34.236Z,5.10
2017-05-22T19:06:00.952Z,4.50
2017-05-22T19:08:27.648Z,4.62
2017-05-22T19:10:54.334Z,4.86
2017-05-22T19:13:21.068Z,5.02
2017-05-22T19:15:47.763Z,4.58
2017-05-22T19:18:14.464Z,4.62
2017-05-22T19:20:41.186Z,4.84
2017-05-22T19:23:07.896Z,4.88
2017-05-22T19:25:34.578Z,5.30
2017-05-22T19:28:01.278Z,4.34
2017-05-22T19:30:27.954Z,5.04
2017-05-22T19:32:54.667Z,5.02
2017-05-22T19:35:21.704Z,4.78
2017-05-22T19:37:48.412Z,5.64
2017-05-22T19:40:15.469Z,5.58
2017-05-22T19:42:42.328Z,5.44
2017-05-22T19:45:09.255Z,5.14
2017-05-22T19:47:35.967Z,5.22
2017-05-22T19:50:02.674Z,5.68
2017-05-22T19:52:29.363Z,5.92
2017-05-22T19:54:56.082Z,5.52
2017-05-22T19:57:22.772Z,6.26
2017-05-22T19:59:49.468Z,6.46
2017-05-22T20:02:16.155Z,5.88
2017-05-22T20:04:42.854Z,6.66
2017-05-22T20:07:09.576Z,6.98
2017-05-22T20:09:36.273Z,6.36
2017-05-22T20:12:02.962Z,7.18
2017-05-22T20:14:29.663Z,6.40
2017-05-22T20:16:56.361Z,6.78
2017-05-22T20:19:23.054Z,7.12
2017-05-22T20:21:49.742Z,7.10
2017-05-22T20:24:15.735Z,7.02
2017-05-22T20:26:42.435Z,7.08
2017-05-22T20:29:09.119Z,6.84
2017-05-22T20:31:35.826Z,7.62
2017-05-22T20:34:02.640Z,5.82
2017-05-22T20:36:29.337Z,7.38
2017-05-22T20:38:56.019Z,6.86
2017-05-22T20:41:22.713Z,7.60
2017-05-22T20:43:49.411Z,6.82
2017-05-22T20:46:16.087Z,6.64
2017-05-22T20:48:42.811Z,7.64
2017-05-22T20:51:09.500Z,7.40
2017-05-22T20:53:36.210Z,6.90
2017-05-22T20:56:02.924Z,7.42
2017-05-22T20:58:29.607Z,6.68
2017-05-22T21:00:56.314Z,7.12
2017-05-22T21:03:23.003Z,7.32
2017-05-22T21:05:49.693Z,7.60
2017-05-22T21:08:16.396Z,7.12
2017-05-22T21:10:43.084Z,6.70
2017-05-22T21:13:09.815Z,7.10
2017-05-22T21:15:36.499Z,7.10
2017-05-22T21:18:03.195Z,7.78
2017-05-22T21:20:30.123Z,6.74
2017-05-22T21:22:56.873Z,7.28
2017-05-22T21:25:23.547Z,7.28
2017-05-22T21:27:50.235Z,7.42
2017-05-22T21:30:16.931Z,6.96
2017-05-22T21:32:43.632Z,7.04
2017-05-22T21:35:10.319Z,7.24
2017-05-22T21:37:37.042Z,6.18
2017-05-22T21:40:03.727Z,7.24
2017-05-22T21:42:30.425Z,7.46
2017-05-22T21:44:57.139Z,6.82
2017-05-22T21:47:23.848Z,7.48
2017-05-22T21:49:50.543Z,7.48
2017-05-22T21:52:17.223Z,8.12
2017-05-22T21:54:43.925Z,7.62
2017-05-22T21:57:10.628Z,7.22
2017-05-22T21:59:37.319Z,7.98
2017-05-22T22:02:04.039Z,8.06
2017-05-22T22:04:30.736Z,7.48
2017-05-22T22:06:57.429Z,7.82
2017-05-22T22:09:24.154Z,8.16
2017-05-22T22:11:50.848Z,8.64
2017-05-22T22:14:17.570Z,7.72
2017-05-22T22:16:44.380Z,7.34
2017-05-22T22:19:11.068Z,7.38
2017-05-22T22:21:37.776Z,7.34
2017-05-22T22:24:04.459Z,7.40
2017-05-22T22:26:31.175Z,8.76
2017-05-22T22:28:57.859Z,7.94
2017-05-22T22:31:24.552Z,7.80
2017-05-22T22:33:51.247Z,7.68
2017-05-22T22:36:17.940Z,7.86
2017-05-22T22:38:44.700Z,7.56
2017-05-22T22:41:18.511Z,8.40
2017-05-22T22:43:46.223Z,8.64
2017-05-22T22:46:12.906Z,8.32
2017-05-22T22:48:39.596Z,9.08
2017-05-22T22:51:06.308Z,8.50
2017-05-22T22:53:33.016Z,8.70
2017-05-22T22:55:59.736Z,9.00
2017-05-22T22:58:26.440Z,9.30
2017-05-22T23:00:53.133Z,9.18
2017-05-22T23:03:19.839Z,9.46
2017-05-22T23:05:46.528Z,8.34
2017-05-22T23:08:13.227Z,8.62
2017-05-22T23:10:39.915Z,9.02
2017-05-22T23:13:06.611Z,9.00
2017-05-22T23:15:33.315Z,9.46
2017-05-22T23:18:00.000Z,8.84
2017-05-22T23:20:26.995Z,9.24
2017-05-22T23:22:53.691Z,9.50
2017-05-22T23:25:20.382Z,10.04
2017-05-22T23:27:47.075Z,9.26
2017-05-22T23:30:13.784Z,10.46
2017-05-22T23:32:40.487Z,9.74
2017-05-22T23:35:07.195Z,9.58
2017-05-22T23:37:33.915Z,10.02
2017-05-22T23:40:00.740Z,9.10
2017-05-22T23:42:27.436Z,9.28
2017-05-22T23:44:54.138Z,9.40
2017-05-22T23:47:20.836Z,9.32
2017-05-22T23:49:47.531Z,8.94
2017-05-22T23:52:14.238Z,10.36
2017-05-22T23:54:40.967Z,9.18
2017-05-22T23:57:07.660Z,9.92
2017-05-22T23:59:34.379Z,9.02
